Time,TemperatureF,DewpointF,PressureIn,WindDirection,WindDirectionDegrees,WindSpeedMPH,WindSpeedGustMPH,Humidity,HourlyPrecipIn,Conditions,Clouds,dailyrainin,SolarRadiationWatts/m^2,SoftwareType,DateUTC
2013-11-13 00:00:00,16.6,13.7,30.71,NW,315,2.0,3.0,88,0.00,,,0.00,0,Wunderground v.1.15,2013-11-13 06:00:00,
2013-11-13 00:05:00,16.4,13.5,30.71,NW,315,3.0,3.0,88,0.00,,,0.00,0,Wunderground v.1.15,2013-11-13 06:05:00,
2013-11-13 00:10:00,16.3,13.4,30.71,NW,315,3.0,3.0,88,0.00,,,0.00,0,Wunderground v.1.15,2013-11-13 06:10:00,
2013-11-13 00:20:00,16.0,13.1,30.70,NW,315,4.0,4.0,88,0.00,,,0.00,0,Wunderground v.1.15,2013-11-13 06:20:00,
2013-11-13 00:25:00,16.0,13.1,30.70,NW,315,4.0,4.0,88,0.00,,,0.00,0,Wunderground v.1.15,2013-11-13 06:25:00,
2013-11-13 00:30:00,16.1,13.4,30.70,NW,315,4.0,4.0,89,0.00,,,0.00,0,Wunderground v.1.15,2013-11-13 06:30:00,
2013-11-13 00:35:00,16.1,13.4,30.70,NW,315,3.0,4.0,89,0.00,,,0.00,0,Wunderground v.1.15,2013-11-13 06:35:00,
2013-11-13 00:40:00,16.1,13.4,30.70,NW,315,4.0,4.0,89,0.00,,,0.00,0,Wunderground v.1.15,2013-11-13 06:40:00,
2013-11-13 00:50:00,16.4,13.7,30.69,NW,315,4.0,4.0,89,0.00,,,0.00,0,Wunderground v.1.15,2013-11-13 06:50:00,
2013-11-13 00:55:00,16.6,13.9,30.70,NW,315,4.0,4.0,89,0.00,,,0.00,0,Wunderground v.1.15,2013-11-13 06:55:00,
2013-11-13 01:00:00,16.9,14.2,30.69,NW,315,3.0,4.0,89,0.00,,,0.00,0,Wunderground v.1.15,2013-11-13 07:00:00,
2013-11-13 01:05:00,17.1,14.7,30.69,NW,315,3.0,4.0,90,0.00,,,0.00,0,Wunderground v.1.15,2013-11-13 07:05:00,
2013-11-13 01:10:00,17.2,14.5,30.68,NW,315,3.0,3.0,89,0.00,,,0.00,0,Wunderground v.1.15,2013-11-13 07:10:00,
2013-11-13 01:15:00,17.3,14.6,30.68,NW,315,3.0,3.0,89,0.00,,,0.00,0,Wunderground v.1.15,2013-11-13 07:15:00,
2013-11-13 01:25:00,17.6,14.9,30.68,NW,313,5.0,5.0,89,0.00,,,0.00,0,Wunderground v.1.15,2013-11-13 07:25:00,
2013-11-13 01:30:00,17.7,15.0,30.68,NW,313,5.0,5.0,89,0.00,,,0.00,0,Wunderground v.1.15,2013-11-13 07:30:00,
2013-11-13 01:35:00,17.7,15.0,30.68,NW,311,5.0,5.0,89,0.00,,,0.00,0,Wunderground v.1.15,2013-11-13 07:35:00,
2013-11-13 01:40:00,17.8,15.1,30.68,NW,311,4.0,4.0,89,0.00,,,0.00,0,Wunderground v.1.15,2013-11-13 07:40:00,
2013-11-13 01:45:00,17.9,15.2,30.68,NW,311,4.0,4.0,89,0.00,,,0.00,0,Wunderground v.1.15,2013-11-13 07:45:00,
2013-11-13 01:55:00,17.9,14.9,30.68,NW,311,3.0,4.0,88,0.00,,,0.00,0,Wunderground v.1.15,2013-11-13 07:55:00,
2013-11-13 02:00:00,17.8,14.8,30.68,NW,311,3.0,3.0,88,0.00,,,0.00,0,Wunderground v.1.15,2013-11-13 08:00:00,
2013-11-13 02:05:00,17.7,14.8,30.69,NW,311,2.0,3.0,88,0.00,,,0.00,0,Wunderground v.1.15,2013-11-13 08:05:00,
2013-11-13 02:10:00,17.6,14.7,30.69,NW,311,2.0,3.0,88,0.00,,,0.00,0,Wunderground v.1.15,2013-11-13 08:10:00,
2013-11-13 02:15:00,17.6,14.7,30.69,NW,311,2.0,3.0,88,0.00,,,0.00,0,Wunderground v.1.15,2013-11-13 08:15:00,
2013-11-13 02:20:00,17.4,14.5,30.69,NW,311,2.0,2.0,88,0.00,,,0.00,0,Wunderground v.1.15,2013-11-13 08:20:00,
2013-11-13 02:30:00,17.3,14.4,30.68,NW,311,3.0,3.0,88,0.00,,,0.00,0,Wunderground v.1.15,2013-11-13 08:30:00,
2013-11-13 02:35:00,17.3,14.4,30.68,NW,311,3.0,4.0,88,0.00,,,0.00,0,Wunderground v.1.15,2013-11-13 08:35:00,
2013-11-13 02:40:00,17.2,14.3,30.68,NW,311,4.0,4.0,88,0.00,,,0.00,0,Wunderground v.1.15,2013-11-13 08:40:00,
2013-11-13 02:45:00,17.0,14.1,30.68,NW,311,4.0,4.0,88,0.00,,,0.00,0,Wunderground v.1.15,2013-11-13 08:45:00,
2013-11-13 02:50:00,16.7,13.5,30.67,NW,311,4.0,4.0,87,0.00,,,0.00,0,Wunderground v.1.15,2013-11-13 08:50:00,
2013-11-13 03:00:00,16.1,12.9,30.67,NW,311,3.0,3.0,87,0.00,,,0.00,0,Wunderground v.1.15,2013-11-13 09:00:00,
2013-11-13 03:05:00,15.8,12.6,30.67,NW,311,3.0,4.0,87,0.00,,,0.00,0,Wunderground v.1.15,2013-11-13 09:05:00,
2013-11-13 03:10:00,15.6,12.4,30.67,NW,311,3.0,3.0,87,0.00,,,0.00,0,Wunderground v.1.15,2013-11-13 09:10:00,
2013-11-13 03:15:00,15.4,12.5,30.67,NW,311,3.0,3.0,88,0.00,,,0.00,0,Wunderground v.1.15,2013-11-13 09:15:00,
2013-11-13 03:20:00,15.2,12.3,30.67,NW,311,3.0,3.0,88,0.00,,,0.00,0,Wunderground v.1.15,2013-11-13 09:20:00,
2013-11-13 03:31:00,15.2,12.5,30.67,NW,311,3.0,3.0,89,0.00,,,0.00,0,Wunderground v.1.15,2013-11-13 09:31:00,
2013-11-13 03:40:00,15.4,12.7,30.68,NW,311,3.0,3.0,89,0.00,,,0.00,0,Wunderground v.1.15,2013-11-13 09:40:00,
2013-11-13 03:50:00,15.5,12.8,30.68,NW,311,2.0,2.0,89,0.00,,,0.00,0,Wunderground v.1.15,2013-11-13 09:50:00,
2013-11-13 03:55:00,15.4,12.7,30.68,NW,311,1.0,2.0,89,0.00,,,0.00,0,Wunderground v.1.15,2013-11-13 09:55:00,
2013-11-13 04:00:00,15.4,12.7,30.68,NW,311,2.0,2.0,89,0.00,,,0.00,0,Wunderground v.1.15,2013-11-13 10:00:00,
2013-11-13 04:10:00,15.3,12.6,30.67,NW,311,1.0,2.0,89,0.00,,,0.00,0,Wunderground v.1.15,2013-11-13 10:10:00,
2013-11-13 04:15:00,15.3,12.6,30.67,NW,311,2.0,3.0,89,0.00,,,0.00,0,Wunderground v.1.15,2013-11-13 10:15:00,
2013-11-13 04:20:00,15.5,13.1,30.67,NW,311,3.0,4.0,90,0.00,,,0.00,0,Wunderground v.1.15,2013-11-13 10:20:00,
2013-11-13 04:25:00,15.8,13.4,30.67,NW,311,4.0,5.0,90,0.00,,,0.00,0,Wunderground v.1.15,2013-11-13 10:25:00,
2013-11-13 04:30:00,16.1,13.7,30.67,NW,311,4.0,4.0,90,0.00,,,0.00,0,Wunderground v.1.15,2013-11-13 10:30:00,
2013-11-13 04:40:00,16.4,14.0,30.67,NW,311,4.0,4.0,90,0.00,,,0.00,0,Wunderground v.1.15,2013-11-13 10:40:00,
2013-11-13 04:45:00,16.3,13.9,30.67,NW,311,3.0,4.0,90,0.00,,,0.00,0,Wunderground v.1.15,2013-11-13 10:45:00,
2013-11-13 04:50:00,16.3,13.6,30.67,NW,311,3.0,3.0,89,0.00,,,0.00,0,Wunderground v.1.15,2013-11-13 10:50:00,
2013-11-13 04:55:00,16.3,13.6,30.66,NW,311,3.0,3.0,89,0.00,,,0.00,0,Wunderground v.1.15,2013-11-13 10:55:00,
2013-11-13 05:00:00,16.3,13.6,30.66,NW,311,3.0,3.0,89,0.00,,,0.00,0,Wunderground v.1.15,2013-11-13 11:00:00,
2013-11-13 05:10:00,16.4,13.7,30.66,NW,311,3.0,3.0,89,0.00,,,0.00,0,Wunderground v.1.15,2013-11-13 11:10:00,
2013-11-13 05:15:00,16.5,13.8,30.67,NW,311,3.0,3.0,89,0.00,,,0.00,0,Wunderground v.1.15,2013-11-13 11:15:00,
2013-11-13 05:20:00,16.3,13.4,30.66,NW,311,3.0,3.0,88,0.00,,,0.00,0,Wunderground v.1.15,2013-11-13 11:20:00,
2013-11-13 05:30:00,16.3,13.4,30.66,NW,311,3.0,3.0,88,0.00,,,0.00,0,Wunderground v.1.15,2013-11-13 11:30:00,
2013-11-13 05:35:00,16.2,13.3,30.66,NW,311,2.0,3.0,88,0.00,,,0.00,0,Wunderground v.1.15,2013-11-13 11:35:00,
2013-11-13 05:40:00,16.1,13.2,30.66,NW,311,3.0,4.0,88,0.00,,,0.00,0,Wunderground v.1.15,2013-11-13 11:40:00,
2013-11-13 05:45:00,16.0,13.1,30.66,NW,311,3.0,4.0,88,0.00,,,0.00,0,Wunderground v.1.15,2013-11-13 11:45:00,
2013-11-13 05:50:00,16.0,13.1,30.66,NW,311,3.0,3.0,88,0.00,,,0.00,0,Wunderground v.1.15,2013-11-13 11:50:00,
2013-11-13 05:55:00,15.9,13.0,30.65,NW,311,2.0,3.0,88,0.00,,,0.00,0,Wunderground v.1.15,2013-11-13 11:55:00,
2013-11-13 06:00:00,15.9,13.0,30.65,NW,311,2.0,4.0,88,0.00,,,0.00,0,Wunderground v.1.15,2013-11-13 12:00:00,
2013-11-13 06:10:00,16.2,13.5,30.65,NW,311,3.0,3.0,89,0.00,,,0.00,0,Wunderground v.1.15,2013-11-13 12:10:00,
2013-11-13 06:15:00,16.4,13.7,30.65,NW,311,3.0,3.0,89,0.00,,,0.00,0,Wunderground v.1.15,2013-11-13 12:15:00,
2013-11-13 06:20:00,16.8,14.1,30.65,NW,311,3.0,4.0,89,0.00,,,0.00,0,Wunderground v.1.15,2013-11-13 12:20:00,
2013-11-13 06:25:00,17.1,14.4,30.64,NW,311,4.0,4.0,89,0.00,,,0.00,0,Wunderground v.1.15,2013-11-13 12:25:00,
2013-11-13 06:35:00,17.7,15.0,30.64,WNW,302,5.0,6.0,89,0.00,,,0.00,0,Wunderground v.1.15,2013-11-13 12:35:00,
2013-11-13 06:40:00,18.0,15.0,30.64,WNW,286,5.0,8.0,88,0.00,,,0.00,0,Wunderground v.1.15,2013-11-13 12:40:00,
2013-11-13 06:45:00,18.3,15.3,30.64,SSW,196,5.0,8.0,88,0.00,,,0.00,5,Wunderground v.1.15,2013-11-13 12:45:00,
2013-11-13 06:50:00,18.5,15.5,30.64,SSW,196,6.0,6.0,88,0.00,,,0.00,5,Wunderground v.1.15,2013-11-13 12:50:00,
2013-11-13 06:55:00,18.9,15.7,30.65,SSW,197,6.0,6.0,87,0.00,,,0.00,9,Wunderground v.1.15,2013-11-13 12:55:00,
2013-11-13 07:00:00,19.1,15.6,30.64,SSW,199,6.0,7.0,86,0.00,,,0.00,12,Wunderground v.1.15,2013-11-13 13:00:00,
2013-11-13 07:05:00,19.3,15.8,30.64,SSW,201,6.0,9.0,86,0.00,,,0.00,16,Wunderground v.1.15,2013-11-13 13:05:00,
2013-11-13 07:10:00,19.5,15.7,30.64,SSW,202,7.0,7.0,85,0.00,,,0.00,21,Wunderground v.1.15,2013-11-13 13:10:00,
2013-11-13 07:15:00,19.8,16.0,30.64,SSW,202,7.0,7.0,85,0.00,,,0.00,28,Wunderground v.1.15,2013-11-13 13:15:00,
2013-11-13 07:20:00,20.0,16.2,30.64,SSW,205,6.0,6.0,85,0.00,,,0.00,42,Wunderground v.1.15,2013-11-13 13:20:00,
2013-11-13 07:25:00,20.2,16.4,30.64,SSW,205,6.0,6.0,85,0.00,,,0.00,54,Wunderground v.1.15,2013-11-13 13:25:00,
2013-11-13 07:30:00,20.6,16.8,30.64,SSW,203,7.0,7.0,85,0.00,,,0.00,62,Wunderground v.1.15,2013-11-13 13:30:00,
2013-11-13 07:40:00,21.3,16.9,30.64,SSW,209,8.0,9.0,83,0.00,,,0.00,90,Wunderground v.1.15,2013-11-13 13:40:00,
2013-11-13 07:45:00,21.7,17.3,30.64,SSW,212,9.0,10.0,83,0.00,,,0.00,100,Wunderground v.1.15,2013-11-13 13:45:00,
2013-11-13 07:50:00,22.2,17.8,30.64,SSW,210,9.0,11.0,83,0.00,,,0.00,120,Wunderground v.1.15,2013-11-13 13:50:00,
2013-11-13 07:55:00,22.6,18.2,30.63,SSW,212,9.0,11.0,83,0.00,,,0.00,137,Wunderground v.1.15,2013-11-13 13:55:00,
2013-11-13 08:00:00,23.1,18.7,30.63,SW,215,9.0,13.0,83,0.00,,,0.00,155,Wunderground v.1.15,2013-11-13 14:00:00,
2013-11-13 08:05:00,23.5,18.8,30.63,SW,216,10.0,13.0,82,0.00,,,0.00,172,Wunderground v.1.15,2013-11-13 14:05:00,
2013-11-13 08:15:00,24.4,19.7,30.64,SW,221,10.0,11.0,82,0.00,,,0.00,199,Wunderground v.1.15,2013-11-13 14:15:00,
2013-11-13 08:20:00,24.8,19.8,30.63,SW,218,10.0,10.0,81,0.00,,,0.00,216,Wunderground v.1.15,2013-11-13 14:20:00,
2013-11-13 08:25:00,25.2,20.2,30.63,SW,218,10.0,10.0,81,0.00,,,0.00,229,Wunderground v.1.15,2013-11-13 14:25:00,
2013-11-13 08:30:00,25.6,20.6,30.63,SW,217,10.0,10.0,81,0.00,,,0.00,243,Wunderground v.1.15,2013-11-13 14:30:00,
2013-11-13 08:35:00,26.0,21.0,30.63,SW,223,10.0,10.0,81,0.00,,,0.00,257,Wunderground v.1.15,2013-11-13 14:35:00,
2013-11-13 08:45:00,27.0,21.1,30.63,SW,221,11.0,11.0,78,0.00,,,0.00,287,Wunderground v.1.15,2013-11-13 14:45:00,
2013-11-13 08:50:00,27.3,21.0,30.63,SW,221,12.0,12.0,77,0.00,,,0.00,287,Wunderground v.1.15,2013-11-13 14:50:00,
2013-11-13 08:55:00,27.7,21.4,30.62,SW,215,12.0,12.0,77,0.00,,,0.00,304,Wunderground v.1.15,2013-11-13 14:55:00,
2013-11-13 09:00:00,28.1,21.8,30.62,SW,228,11.0,11.0,77,0.00,,,0.00,316,Wunderground v.1.15,2013-11-13 15:00:00,
2013-11-13 09:05:00,28.4,22.1,30.62,SW,223,12.0,12.0,77,0.00,,,0.00,332,Wunderground v.1.15,2013-11-13 15:05:00,
2013-11-13 09:10:00,28.7,21.5,30.62,SW,225,12.0,15.0,74,0.00,,,0.00,346,Wunderground v.1.15,2013-11-13 15:10:00,
2013-11-13 09:20:00,29.2,21.3,30.62,SW,225,13.0,15.0,72,0.00,,,0.00,369,Wunderground v.1.15,2013-11-13 15:20:00,
2013-11-13 09:25:00,29.5,22.2,30.62,SW,226,12.0,15.0,74,0.00,,,0.00,378,Wunderground v.1.15,2013-11-13 15:25:00,
2013-11-13 09:30:00,29.8,21.5,30.61,SW,220,13.0,15.0,71,0.00,,,0.00,388,Wunderground v.1.15,2013-11-13 15:30:00,
2013-11-13 09:35:00,30.1,21.8,30.61,SW,219,13.0,15.0,71,0.00,,,0.00,392,Wunderground v.1.15,2013-11-13 15:35:00,
2013-11-13 09:40:00,30.5,23.2,30.61,SSW,213,13.0,13.0,74,0.00,,,0.00,396,Wunderground v.1.15,2013-11-13 15:40:00,
2013-11-13 09:50:00,31.0,21.7,30.61,SW,220,14.0,14.0,68,0.00,,,0.00,436,Wunderground v.1.15,2013-11-13 15:50:00,
2013-11-13 09:55:00,31.3,22.0,30.61,SSW,212,13.0,15.0,68,0.00,,,0.00,439,Wunderground v.1.15,2013-11-13 15:55:00,
2013-11-13 10:00:00,31.6,22.2,30.61,SW,217,13.0,14.0,68,0.00,,,0.00,438,Wunderground v.1.15,2013-11-13 16:00:00,
2013-11-13 10:05:00,31.8,22.1,30.61,SW,228,13.0,14.0,67,0.00,,,0.00,455,Wunderground v.1.15,2013-11-13 16:05:00,
2013-11-13 10:10:00,32.0,21.6,30.60,SW,221,14.0,16.0,65,0.00,,,0.00,462,Wunderground v.1.15,2013-11-13 16:10:00,
2013-11-13 10:15:00,32.1,21.7,30.60,SW,228,14.0,16.0,65,0.00,,,0.00,478,Wunderground v.1.15,2013-11-13 16:15:00,
2013-11-13 10:25:00,32.8,23.4,30.59,SSW,209,13.0,16.0,68,0.00,,,0.00,376,Wunderground v.1.15,2013-11-13 16:25:00,
2013-11-13 10:30:00,33.1,22.2,30.58,SW,220,13.0,15.0,64,0.00,,,0.00,485,Wunderground v.1.15,2013-11-13 16:30:00,
2013-11-13 10:35:00,33.3,23.5,30.58,SW,214,13.0,15.0,67,0.00,,,0.00,497,Wunderground v.1.15,2013-11-13 16:35:00,
2013-11-13 10:40:00,33.7,23.9,30.58,SW,226,13.0,14.0,67,0.00,,,0.00,504,Wunderground v.1.15,2013-11-13 16:40:00,
2013-11-13 10:45:00,34.0,22.3,30.57,SSW,209,13.0,14.0,62,0.00,,,0.00,510,Wunderground v.1.15,2013-11-13 16:45:00,
2013-11-13 10:55:00,34.6,23.3,30.56,SW,228,12.0,13.0,63,0.00,,,0.00,522,Wunderground v.1.15,2013-11-13 16:55:00,
2013-11-13 11:00:00,35.0,22.5,30.56,SW,222,12.0,14.0,60,0.00,,,0.00,527,Wunderground v.1.15,2013-11-13 17:00:00,
2013-11-13 11:05:00,35.2,23.1,30.56,SW,228,13.0,14.0,61,0.00,,,0.00,534,Wunderground v.1.15,2013-11-13 17:05:00,
2013-11-13 11:10:00,35.6,23.5,30.55,SSW,207,13.0,13.0,61,0.00,,,0.00,519,Wunderground v.1.15,2013-11-13 17:10:00,
2013-11-13 11:15:00,36.0,23.0,30.55,SW,214,13.0,13.0,59,0.00,,,0.00,519,Wunderground v.1.15,2013-11-13 17:15:00,
2013-11-13 11:20:00,36.2,22.0,30.54,SSW,204,13.0,13.0,56,0.00,,,0.00,529,Wunderground v.1.15,2013-11-13 17:20:00,
2013-11-13 11:30:00,36.8,21.7,30.53,SW,218,14.0,17.0,54,0.00,,,0.00,515,Wunderground v.1.15,2013-11-13 17:30:00,
2013-11-13 11:35:00,37.0,21.4,30.53,SSW,202,15.0,17.0,53,0.00,,,0.00,547,Wunderground v.1.15,2013-11-13 17:35:00,
2013-11-13 11:40:00,37.3,22.6,30.52,SW,221,15.0,15.0,55,0.00,,,0.00,494,Wunderground v.1.15,2013-11-13 17:40:00,
2013-11-13 11:45:00,37.7,22.5,30.52,SSW,213,13.0,16.0,54,0.00,,,0.00,545,Wunderground v.1.15,2013-11-13 17:45:00,
2013-11-13 11:50:00,38.0,22.4,30.51,SSW,212,13.0,16.0,53,0.00,,,0.00,547,Wunderground v.1.15,2013-11-13 17:50:00,
2013-11-13 12:00:00,38.6,21.1,30.50,SSW,198,14.0,15.0,49,0.00,,,0.00,543,Wunderground v.1.15,2013-11-13 18:00:00,
2013-11-13 12:05:00,38.8,20.3,30.50,SSW,203,15.0,15.0,47,0.00,,,0.00,536,Wunderground v.1.15,2013-11-13 18:05:00,
2013-11-13 12:10:00,39.0,20.9,30.50,SSW,213,16.0,16.0,48,0.00,,,0.00,536,Wunderground v.1.15,2013-11-13 18:10:00,
2013-11-13 12:15:00,39.4,23.7,30.49,SSW,197,14.0,16.0,53,0.00,,,0.00,538,Wunderground v.1.15,2013-11-13 18:15:00,
2013-11-13 12:20:00,39.9,22.7,30.49,South,189,13.0,13.0,50,0.00,,,0.00,533,Wunderground v.1.15,2013-11-13 18:20:00,
2013-11-13 12:25:00,40.2,21.6,30.49,SSW,198,12.0,13.0,47,0.00,,,0.01,534,Wunderground v.1.15,2013-11-13 18:25:00,
2013-11-13 12:35:00,40.7,23.0,30.48,South,188,14.0,16.0,49,0.00,,,0.01,527,Wunderground v.1.15,2013-11-13 18:35:00,
2013-11-13 12:40:00,40.9,21.7,30.48,South,191,14.0,16.0,46,0.00,,,0.01,526,Wunderground v.1.15,2013-11-13 18:40:00,
2013-11-13 12:45:00,41.1,21.9,30.48,SW,219,13.0,16.0,46,0.00,,,0.01,522,Wunderground v.1.15,2013-11-13 18:45:00,
2013-11-13 12:50:00,41.5,21.7,30.48,SSW,193,13.0,13.0,45,0.00,,,0.01,482,Wunderground v.1.15,2013-11-13 18:50:00,
2013-11-13 12:55:00,41.6,21.8,30.48,SSW,198,13.0,13.0,45,0.00,,,0.01,497,Wunderground v.1.15,2013-11-13 18:55:00,
2013-11-13 13:05:00,42.0,20.5,30.47,SW,218,14.0,20.0,42,0.00,,,0.01,496,Wunderground v.1.15,2013-11-13 19:05:00,
2013-11-13 13:10:00,42.2,20.2,30.46,SSW,200,15.0,15.0,41,0.00,,,0.01,489,Wunderground v.1.15,2013-11-13 19:10:00,
2013-11-13 13:15:00,42.4,22.0,30.45,SSW,205,16.0,16.0,44,0.00,,,0.01,487,Wunderground v.1.15,2013-11-13 19:15:00,
2013-11-13 13:20:00,42.5,22.1,30.45,South,189,14.0,16.0,44,0.00,,,0.01,480,Wunderground v.1.15,2013-11-13 19:20:00,
2013-11-13 13:25:00,42.7,20.6,30.44,SSW,193,14.0,16.0,41,0.00,,,0.01,473,Wunderground v.1.15,2013-11-13 19:25:00,
2013-11-13 13:30:00,42.8,21.3,30.44,SSW,209,14.0,14.0,42,0.00,,,0.01,457,Wunderground v.1.15,2013-11-13 19:30:00,
2013-11-13 13:40:00,43.2,19.9,30.43,SSW,202,14.0,15.0,39,0.00,,,0.01,448,Wunderground v.1.15,2013-11-13 19:40:00,
2013-11-13 13:45:00,43.3,20.6,30.43,South,190,14.0,15.0,40,0.00,,,0.01,438,Wunderground v.1.15,2013-11-13 19:45:00,
2013-11-13 13:50:00,43.3,21.1,30.42,South,186,14.0,14.0,41,0.00,,,0.01,431,Wunderground v.1.15,2013-11-13 19:50:00,
2013-11-13 13:55:00,43.3,21.7,30.42,South,187,14.0,14.0,42,0.00,,,0.01,420,Wunderground v.1.15,2013-11-13 19:55:00,
2013-11-13 14:00:00,43.4,21.8,30.42,SSW,196,14.0,22.0,42,0.00,,,0.01,408,Wunderground v.1.15,2013-11-13 20:00:00,
2013-11-13 14:05:00,43.3,20.0,30.42,SSW,194,15.0,22.0,39,0.00,,,0.01,401,Wunderground v.1.15,2013-11-13 20:05:00,
2013-11-13 14:10:00,43.3,20.0,30.42,SW,219,16.0,16.0,39,0.00,,,0.01,390,Wunderground v.1.15,2013-11-13 20:10:00,
2013-11-13 14:15:00,43.4,21.2,30.42,SSW,198,15.0,16.0,41,0.00,,,0.01,380,Wunderground v.1.15,2013-11-13 20:15:00,
2013-11-13 14:20:00,43.6,20.2,30.41,South,187,14.0,15.0,39,0.00,,,0.01,367,Wunderground v.1.15,2013-11-13 20:20:00,
2013-11-13 14:25:00,43.8,20.4,30.41,SSW,205,14.0,15.0,39,0.00,,,0.01,357,Wunderground v.1.15,2013-11-13 20:25:00,
2013-11-13 14:30:00,43.9,21.7,30.41,SSW,192,14.0,14.0,41,0.00,,,0.01,339,Wunderground v.1.15,2013-11-13 20:30:00,
2013-11-13 14:35:00,43.9,20.5,30.41,South,189,15.0,15.0,39,0.00,,,0.01,327,Wunderground v.1.15,2013-11-13 20:35:00,
2013-11-13 14:45:00,43.9,19.3,30.40,SSW,213,16.0,16.0,37,0.00,,,0.01,309,Wunderground v.1.15,2013-11-13 20:45:00,
2013-11-13 14:50:00,44.1,21.3,30.40,SSW,206,16.0,19.0,40,0.00,,,0.01,299,Wunderground v.1.15,2013-11-13 20:50:00,
2013-11-13 14:55:00,44.1,20.1,30.40,SSW,200,15.0,19.0,38,0.00,,,0.01,287,Wunderground v.1.15,2013-11-13 20:55:00,
2013-11-13 15:00:00,44.0,20.6,30.40,SSW,202,15.0,16.0,39,0.00,,,0.01,274,Wunderground v.1.15,2013-11-13 21:00:00,
2013-11-13 15:05:00,44.0,21.2,30.40,SSW,207,14.0,16.0,40,0.00,,,0.01,253,Wunderground v.1.15,2013-11-13 21:05:00,
2013-11-13 15:15:00,43.9,21.1,30.39,SSW,203,14.0,16.0,40,0.00,,,0.01,229,Wunderground v.1.15,2013-11-13 21:15:00,
2013-11-13 15:20:00,43.9,21.7,30.39,SSW,200,13.0,13.0,41,0.00,,,0.01,209,Wunderground v.1.15,2013-11-13 21:20:00,
2013-11-13 15:25:00,43.8,21.0,30.39,SSW,193,13.0,16.0,40,0.00,,,0.01,192,Wunderground v.1.15,2013-11-13 21:25:00,
2013-11-13 15:30:00,43.7,20.9,30.39,SSW,202,13.0,13.0,40,0.00,,,0.01,172,Wunderground v.1.15,2013-11-13 21:30:00,
2013-11-13 15:35:00,43.7,22.1,30.39,SSW,212,13.0,17.0,42,0.00,,,0.01,155,Wunderground v.1.15,2013-11-13 21:35:00,
2013-11-13 15:40:00,43.7,20.3,30.39,SSW,198,13.0,14.0,39,0.00,,,0.01,135,Wunderground v.1.15,2013-11-13 21:40:00,
2013-11-13 15:50:00,43.4,21.2,30.38,SSW,205,13.0,13.0,41,0.00,,,0.01,107,Wunderground v.1.15,2013-11-13 21:50:00,
2013-11-13 15:55:00,43.3,20.6,30.38,SSW,200,12.0,13.0,40,0.00,,,0.01,90,Wunderground v.1.15,2013-11-13 21:55:00,
2013-11-13 16:00:00,43.1,20.4,30.38,SSW,203,12.0,12.0,40,0.00,,,0.01,76,Wunderground v.1.15,2013-11-13 22:00:00,
2013-11-13 16:10:00,42.7,21.7,30.38,SSW,200,9.0,11.0,43,0.00,,,0.01,49,Wunderground v.1.15,2013-11-13 22:10:00,
2013-11-13 16:15:00,42.3,21.9,30.38,SSW,194,9.0,11.0,44,0.00,,,0.01,40,Wunderground v.1.15,2013-11-13 22:15:00,
2013-11-13 16:20:00,41.9,22.1,30.37,SSW,196,8.0,8.0,45,0.00,,,0.01,28,Wunderground v.1.15,2013-11-13 22:20:00,
2013-11-13 16:25:00,41.5,22.7,30.37,SSW,196,7.0,9.0,47,0.00,,,0.01,23,Wunderground v.1.15,2013-11-13 22:25:00,
2013-11-13 16:30:00,40.9,22.7,30.37,SSW,195,7.0,7.0,48,0.00,,,0.01,19,Wunderground v.1.15,2013-11-13 22:30:00,
2013-11-13 16:35:00,40.4,22.7,30.37,SSW,195,7.0,7.0,49,0.00,,,0.01,16,Wunderground v.1.15,2013-11-13 22:35:00,
2013-11-13 16:40:00,39.8,22.2,30.36,SSW,195,6.0,6.0,49,0.00,,,0.01,12,Wunderground v.1.15,2013-11-13 22:40:00,
2013-11-13 16:45:00,39.2,22.6,30.36,SSW,195,6.0,6.0,51,0.00,,,0.01,11,Wunderground v.1.15,2013-11-13 22:45:00,
2013-11-13 16:55:00,38.0,22.8,30.36,SSW,195,6.0,6.0,54,0.00,,,0.01,5,Wunderground v.1.15,2013-11-13 22:55:00,
2013-11-13 17:00:00,37.3,22.6,30.36,SSW,195,5.0,5.0,55,0.00,,,0.01,0,Wunderground v.1.15,2013-11-13 23:00:00,
2013-11-13 17:10:00,36.2,22.4,30.35,SSW,195,4.0,4.0,57,0.00,,,0.01,0,Wunderground v.1.15,2013-11-13 23:10:00,
2013-11-13 17:15:00,35.7,21.5,30.35,SSW,195,4.0,4.0,56,0.00,,,0.01,0,Wunderground v.1.15,2013-11-13 23:15:00,
2013-11-13 17:20:00,35.3,21.6,30.35,SSW,195,4.0,4.0,57,0.00,,,0.01,0,Wunderground v.1.15,2013-11-13 23:20:00,
2013-11-13 17:25:00,35.0,20.9,30.34,SSW,195,4.0,5.0,56,0.00,,,0.01,0,Wunderground v.1.15,2013-11-13 23:25:00,
2013-11-13 17:30:00,34.8,21.1,30.34,SSW,195,4.0,4.0,57,0.00,,,0.01,0,Wunderground v.1.15,2013-11-13 23:30:00,
2013-11-13 17:35:00,34.6,21.3,30.34,SSW,195,4.0,4.0,58,0.00,,,0.01,0,Wunderground v.1.15,2013-11-13 23:35:00,
2013-11-13 17:40:00,34.3,21.4,30.34,SSW,194,3.0,4.0,59,0.00,,,0.01,0,Wunderground v.1.15,2013-11-13 23:40:00,
2013-11-13 17:45:00,34.1,20.9,30.34,SSW,194,4.0,5.0,58,0.00,,,0.01,0,Wunderground v.1.15,2013-11-13 23:45:00,
2013-11-13 17:50:00,34.1,20.9,30.34,SSW,193,5.0,5.0,58,0.00,,,0.01,0,Wunderground v.1.15,2013-11-13 23:50:00,
2013-11-13 18:00:00,34.2,21.7,30.33,SSW,192,5.0,5.0,60,0.00,,,0.01,0,Wunderground v.1.15,2013-11-14 00:00:00,
2013-11-13 18:10:00,34.1,21.3,30.33,SSW,192,5.0,5.0,59,0.00,,,0.01,0,Wunderground v.1.15,2013-11-14 00:10:00,
2013-11-13 18:15:00,34.0,21.2,30.33,SSW,192,5.0,5.0,59,0.00,,,0.01,0,Wunderground v.1.15,2013-11-14 00:15:00,
2013-11-13 18:20:00,34.0,21.2,30.33,SSW,192,5.0,5.0,59,0.00,,,0.01,0,Wunderground v.1.15,2013-11-14 00:20:00,
2013-11-13 18:25:00,34.0,21.2,30.32,South,191,5.0,5.0,59,0.00,,,0.01,0,Wunderground v.1.15,2013-11-14 00:25:00,
2013-11-13 18:30:00,34.1,21.7,30.32,South,190,5.0,6.0,60,0.00,,,0.01,0,Wunderground v.1.15,2013-11-14 00:30:00,
2013-11-13 18:35:00,34.1,21.7,30.32,South,190,5.0,6.0,60,0.00,,,0.01,0,Wunderground v.1.15,2013-11-14 00:35:00,
2013-11-13 18:40:00,34.1,22.0,30.32,South,190,5.0,5.0,61,0.00,,,0.01,0,Wunderground v.1.15,2013-11-14 00:40:00,
2013-11-13 18:45:00,34.0,22.0,30.32,South,190,5.0,5.0,61,0.00,,,0.01,0,Wunderground v.1.15,2013-11-14 00:45:00,
2013-11-13 18:50:00,33.9,21.9,30.32,South,190,5.0,6.0,61,0.00,,,0.01,0,Wunderground v.1.15,2013-11-14 00:50:00,
2013-11-13 19:00:00,33.9,21.9,30.32,South,189,6.0,6.0,61,0.00,,,0.01,0,Wunderground v.1.15,2013-11-14 01:00:00,
2013-11-13 19:05:00,33.9,22.2,30.32,South,189,6.0,6.0,62,0.00,,,0.01,0,Wunderground v.1.15,2013-11-14 01:05:00,
2013-11-13 19:10:00,33.9,22.2,30.32,South,189,6.0,6.0,62,0.00,,,0.01,0,Wunderground v.1.15,2013-11-14 01:10:00,
2013-11-13 19:15:00,33.9,22.2,30.32,South,189,6.0,6.0,62,0.00,,,0.01,0,Wunderground v.1.15,2013-11-14 01:15:00,
2013-11-13 19:20:00,33.8,22.1,30.31,South,189,6.0,6.0,62,0.00,,,0.01,0,Wunderground v.1.15,2013-11-14 01:20:00,
2013-11-13 19:25:00,33.8,22.1,30.31,South,190,6.0,6.0,62,0.00,,,0.01,0,Wunderground v.1.15,2013-11-14 01:25:00,
2013-11-13 19:30:00,33.8,22.1,30.31,South,190,7.0,7.0,62,0.00,,,0.01,0,Wunderground v.1.15,2013-11-14 01:30:00,
2013-11-13 19:40:00,34.0,22.0,30.31,South,190,7.0,8.0,61,0.00,,,0.01,0,Wunderground v.1.15,2013-11-14 01:40:00,
2013-11-13 19:45:00,34.0,22.3,30.30,South,190,7.0,8.0,62,0.00,,,0.01,0,Wunderground v.1.15,2013-11-14 01:45:00,
2013-11-13 19:50:00,33.9,22.2,30.30,South,190,7.0,8.0,62,0.00,,,0.01,0,Wunderground v.1.15,2013-11-14 01:50:00,
2013-11-13 19:55:00,33.9,22.2,30.30,South,191,7.0,8.0,62,0.00,,,0.01,0,Wunderground v.1.15,2013-11-14 01:55:00,
2013-11-13 20:00:00,33.8,21.8,30.30,South,191,7.0,7.0,61,0.00,,,0.01,0,Wunderground v.1.15,2013-11-14 02:00:00,
2013-11-13 20:05:00,33.7,22.1,30.30,South,191,6.0,7.0,62,0.00,,,0.01,0,Wunderground v.1.15,2013-11-14 02:05:00,
2013-11-13 20:10:00,33.5,21.9,30.30,South,191,5.0,5.0,62,0.00,,,0.01,0,Wunderground v.1.15,2013-11-14 02:10:00,
2013-11-13 20:15:00,33.4,21.8,30.29,South,191,5.0,8.0,62,0.00,,,0.01,0,Wunderground v.1.15,2013-11-14 02:15:00,
2013-11-13 20:20:00,33.4,21.8,30.29,South,191,6.0,7.0,62,0.00,,,0.01,0,Wunderground v.1.15,2013-11-14 02:20:00,
2013-11-13 20:25:00,33.4,21.4,30.29,South,191,6.0,9.0,61,0.00,,,0.01,0,Wunderground v.1.15,2013-11-14 02:25:00,
2013-11-13 20:30:00,33.4,21.4,30.29,SSW,192,7.0,7.0,61,0.00,,,0.01,0,Wunderground v.1.15,2013-11-14 02:30:00,
2013-11-13 20:35:00,33.4,21.4,30.29,SSW,192,7.0,7.0,61,0.00,,,0.01,0,Wunderground v.1.15,2013-11-14 02:35:00,
2013-11-13 20:45:00,33.3,21.7,30.28,SSW,192,7.0,8.0,62,0.00,,,0.01,0,Wunderground v.1.15,2013-11-14 02:45:00,
2013-11-13 20:50:00,33.1,21.5,30.28,SSW,192,6.0,6.0,62,0.00,,,0.01,0,Wunderground v.1.15,2013-11-14 02:50:00,
2013-11-13 20:55:00,32.9,21.3,30.28,SSW,192,5.0,6.0,62,0.00,,,0.01,0,Wunderground v.1.15,2013-11-14 02:55:00,
2013-11-13 21:00:00,32.8,21.2,30.28,SSW,192,5.0,11.0,62,0.00,,,0.01,0,Wunderground v.1.15,2013-11-14 03:00:00,
2013-11-13 21:05:00,32.8,21.2,30.28,SSW,192,6.0,11.0,62,0.00,,,0.01,0,Wunderground v.1.15,2013-11-14 03:05:00,
2013-11-13 21:10:00,32.9,21.3,30.27,SSW,192,7.0,7.0,62,0.00,,,0.01,0,Wunderground v.1.15,2013-11-14 03:10:00,
2013-11-13 21:15:00,32.8,21.2,30.27,SSW,192,6.0,7.0,62,0.00,,,0.01,0,Wunderground v.1.15,2013-11-14 03:15:00,
2013-11-13 21:20:00,32.9,20.9,30.28,SSW,192,7.0,10.0,61,0.00,,,0.01,0,Wunderground v.1.15,2013-11-14 03:20:00,
2013-11-13 21:25:00,33.1,21.1,30.28,SSW,192,8.0,10.0,61,0.00,,,0.01,0,Wunderground v.1.15,2013-11-14 03:25:00,
2013-11-13 21:30:00,33.2,21.2,30.28,SSW,194,8.0,10.0,61,0.00,,,0.01,0,Wunderground v.1.15,2013-11-14 03:30:00,
2013-11-13 21:35:00,33.5,20.7,30.27,SSW,195,9.0,11.0,59,0.00,,,0.01,0,Wunderground v.1.15,2013-11-14 03:35:00,
2013-11-13 21:40:00,33.8,21.0,30.27,SSW,195,10.0,10.0,59,0.00,,,0.01,0,Wunderground v.1.15,2013-11-14 03:40:00,
2013-11-13 21:50:00,33.4,21.4,30.26,SSW,195,7.0,7.0,61,0.00,,,0.01,0,Wunderground v.1.15,2013-11-14 03:50:00,
2013-11-13 21:55:00,33.1,21.5,30.26,SSW,195,6.0,7.0,62,0.00,,,0.01,0,Wunderground v.1.15,2013-11-14 03:55:00,
2013-11-13 22:00:00,32.8,21.2,30.26,SSW,195,6.0,6.0,62,0.00,,,0.01,0,Wunderground v.1.15,2013-11-14 04:00:00,
2013-11-13 22:05:00,32.7,21.1,30.26,SSW,194,6.0,6.0,62,0.00,,,0.01,0,Wunderground v.1.15,2013-11-14 04:05:00,
2013-11-13 22:10:00,32.6,21.4,30.25,SSW,194,5.0,6.0,63,0.00,,,0.01,0,Wunderground v.1.15,2013-11-14 04:10:00,
2013-11-13 22:20:00,32.4,21.6,30.25,SSW,194,6.0,6.0,64,0.00,,,0.01,0,Wunderground v.1.15,2013-11-14 04:20:00,
2013-11-13 22:25:00,32.4,21.6,30.25,SSW,194,6.0,7.0,64,0.00,,,0.01,0,Wunderground v.1.15,2013-11-14 04:25:00,
2013-11-13 22:30:00,32.4,21.6,30.25,SSW,194,7.0,7.0,64,0.00,,,0.01,0,Wunderground v.1.15,2013-11-14 04:30:00,
2013-11-13 22:35:00,32.4,21.2,30.25,SSW,194,6.0,7.0,63,0.00,,,0.01,0,Wunderground v.1.15,2013-11-14 04:35:00,
2013-11-13 22:40:00,32.4,21.6,30.25,SSW,194,6.0,6.0,64,0.00,,,0.01,0,Wunderground v.1.15,2013-11-14 04:40:00,
2013-11-13 22:45:00,32.4,21.6,30.25,SSW,194,6.0,6.0,64,0.00,,,0.01,0,Wunderground v.1.15,2013-11-14 04:45:00,
2013-11-13 22:55:00,32.4,21.2,30.25,SSW,194,7.0,9.0,63,0.00,,,0.01,0,Wunderground v.1.15,2013-11-14 04:55:00,
2013-11-13 23:00:00,32.4,21.2,30.25,SSW,194,7.0,7.0,63,0.00,,,0.01,0,Wunderground v.1.15,2013-11-14 05:00:00,
2013-11-13 23:05:00,32.4,21.2,30.25,SSW,194,7.0,8.0,63,0.00,,,0.01,0,Wunderground v.1.15,2013-11-14 05:05:00,
2013-11-13 23:10:00,32.4,21.2,30.25,SSW,195,7.0,9.0,63,0.00,,,0.01,0,Wunderground v.1.15,2013-11-14 05:10:00,
2013-11-13 23:15:00,32.4,21.2,30.24,SSW,195,8.0,9.0,63,0.00,,,0.01,0,Wunderground v.1.15,2013-11-14 05:15:00,
2013-11-13 23:20:00,32.4,21.2,30.25,SSW,195,8.0,8.0,63,0.00,,,0.01,0,Wunderground v.1.15,2013-11-14 05:20:00,
2013-11-13 23:25:00,32.5,20.9,30.24,SSW,196,8.0,9.0,62,0.00,,,0.01,0,Wunderground v.1.15,2013-11-14 05:25:00,
2013-11-13 23:30:00,32.6,21.0,30.24,SSW,197,8.0,10.0,62,0.00,,,0.01,0,Wunderground v.1.15,2013-11-14 05:30:00,
2013-11-13 23:35:00,32.6,21.0,30.24,SSW,197,8.0,10.0,62,0.00,,,0.01,0,Wunderground v.1.15,2013-11-14 05:35:00,
2013-11-13 23:40:00,32.7,21.1,30.24,SSW,197,9.0,9.0,62,0.00,,,0.01,0,Wunderground v.1.15,2013-11-14 05:40:00,
2013-11-13 23:45:00,32.7,21.1,30.24,SSW,197,9.0,9.0,62,0.00,,,0.01,0,Wunderground v.1.15,2013-11-14 05:45:00,
2013-11-13 23:50:00,32.6,21.4,30.24,SSW,198,8.0,11.0,63,0.00,,,0.01,0,Wunderground v.1.15,2013-11-14 05:50:00,
2013-11-13 23:55:00,32.5,21.3,30.24,SSW,197,9.0,11.0,63,0.00,,,0.01,0,Wunderground v.1.15,2013-11-14 05:55:00,